sensor_id;sensor_type;location;lat;lon;timestamp;temperature;humidity
13093;DHT22;6612;49.568;11.000;2023-05-10T00:01:12;20.60;43.30
13093;DHT22;6612;49.568;11.000;2023-05-10T00:03:40;20.60;43.50
13093;DHT22;6612;49.568;11.000;2023-05-10T00:06:07;20.60;43.70
13093;DHT22;6612;49.568;11.000;2023-05-10T00:08:34;20.60;43.90
13093;DHT22;6612;49.568;11.000;2023-05-10T00:11:01;20.50;44.10
13093;DHT22;6612;49.568;11.000;2023-05-10T00:13:28;20.50;44.20
13093;DHT22;6612;49.568;11.000;2023-05-10T00:15:55;20.50;44.50
13093;DHT22;6612;49.568;11.000;2023-05-10T00:18:22;20.50;44.80
13093;DHT22;6612;49.568;11.000;2023-05-10T00:20:51;20.50;45.00
13093;DHT22;6612;49.568;11.000;2023-05-10T00:23:18;20.50;45.60
13093;DHT22;6612;49.568;11.000;2023-05-10T00:25:45;20.50;45.50
13093;DHT22;6612;49.568;11.000;2023-05-10T00:28:12;20.50;45.70
13093;DHT22;6612;49.568;11.000;2023-05-10T00:30:39;20.40;45.80
13093;DHT22;6612;49.568;11.000;2023-05-10T00:33:06;20.40;46.10
13093;DHT22;6612;49.568;11.000;2023-05-10T00:35:33;20.40;46.50
13093;DHT22;6612;49.568;11.000;2023-05-10T00:38:01;20.40;46.80
13093;DHT22;6612;49.568;11.000;2023-05-10T00:40:29;20.40;47.30
13093;DHT22;6612;49.568;11.000;2023-05-10T00:42:56;20.30;47.10
13093;DHT22;6612;49.568;11.000;2023-05-10T00:45:23;20.30;47.20
13093;DHT22;6612;49.568;11.000;2023-05-10T00:47:51;20.30;47.30
13093;DHT22;6612;49.568;11.000;2023-05-10T00:50:20;20.20;47.40
13093;DHT22;6612;49.568;11.000;2023-05-10T00:52:47;20.20;47.40
13093;DHT22;6612;49.568;11.000;2023-05-10T00:55:16;20.10;47.40
13093;DHT22;6612;49.568;11.000;2023-05-10T00:57:43;20.00;47.90
13093;DHT22;6612;49.568;11.000;2023-05-10T01:00:12;20.00;47.90
13093;DHT22;6612;49.568;11.000;2023-05-10T01:02:43;19.90;48.30
13093;DHT22;6612;49.568;11.000;2023-05-10T01:05:11;19.90;48.30
13093;DHT22;6612;49.568;11.000;2023-05-10T01:07:39;19.80;48.60
13093;DHT22;6612;49.568;11.000;2023-05-10T01:10:07;19.70;48.70
13093;DHT22;6612;49.568;11.000;2023-05-10T01:12:38;19.60;48.80
13093;DHT22;6612;49.568;11.000;2023-05-10T01:15:07;19.60;49.60
13093;DHT22;6612;49.568;11.000;2023-05-10T01:17:36;19.60;49.50
13093;DHT22;6612;49.568;11.000;2023-05-10T01:20:05;19.50;49.70
13093;DHT22;6612;49.568;11.000;2023-05-10T01:22:57;19.50;49.90
13093;DHT22;6612;49.568;11.000;2023-05-10T01:25:40;19.40;51.70
13093;DHT22;6612;49.568;11.000;2023-05-10T01:28:29;19.40;51.80
13093;DHT22;6612;49.568;11.000;2023-05-10T01:31:30;19.40;51.90
13093;DHT22;6612;49.568;11.000;2023-05-10T01:34:07;19.30;52.00
13093;DHT22;6612;49.568;11.000;2023-05-10T01:36:42;19.30;51.10
13093;DHT22;6612;49.568;11.000;2023-05-10T01:39:16;19.30;51.40
13093;DHT22;6612;49.568;11.000;2023-05-10T01:41:51;19.20;51.80
13093;DHT22;6612;49.568;11.000;2023-05-10T01:44:24;19.20;51.70
13093;DHT22;6612;49.568;11.000;2023-05-10T01:47:01;19.20;51.80
13093;DHT22;6612;49.568;11.000;2023-05-10T01:49:33;19.20;51.80
13093;DHT22;6612;49.568;11.000;2023-05-10T01:52:06;19.10;52.00
13093;DHT22;6612;49.568;11.000;2023-05-10T01:54:35;19.10;52.30
13093;DHT22;6612;49.568;11.000;2023-05-10T01:57:06;19.10;51.80
13093;DHT22;6612;49.568;11.000;2023-05-10T01:59:39;19.10;52.10
13093;DHT22;6612;49.568;11.000;2023-05-10T02:02:08;19.00;52.10
13093;DHT22;6612;49.568;11.000;2023-05-10T02:04:39;19.00;52.20
13093;DHT22;6612;49.568;11.000;2023-05-10T02:07:08;19.00;52.50
13093;DHT22;6612;49.568;11.000;2023-05-10T02:09:37;19.00;52.50
13093;DHT22;6612;49.568;11.000;2023-05-10T02:12:05;19.00;52.60
13093;DHT22;6612;49.568;11.000;2023-05-10T02:14:36;19.00;52.80
13093;DHT22;6612;49.568;11.000;2023-05-10T02:17:05;19.00;53.20
13093;DHT22;6612;49.568;11.000;2023-05-10T02:19:34;18.90;53.10
13093;DHT22;6612;49.568;11.000;2023-05-10T02:22:04;18.90;53.30
13093;DHT22;6612;49.568;11.000;2023-05-10T02:24:32;18.90;53.70
13093;DHT22;6612;49.568;11.000;2023-05-10T02:27:02;18.90;53.70
13093;DHT22;6612;49.568;11.000;2023-05-10T02:29:31;18.90;54.20
13093;DHT22;6612;49.568;11.000;2023-05-10T02:31:59;18.90;54.20
13093;DHT22;6612;49.568;11.000;2023-05-10T02:34:27;18.90;54.30
13093;DHT22;6612;49.568;11.000;2023-05-10T02:36:55;18.90;54.50
13093;DHT22;6612;49.568;11.000;2023-05-10T02:39:25;18.90;54.70
13093;DHT22;6612;49.568;11.000;2023-05-10T02:41:54;18.90;55.20
13093;DHT22;6612;49.568;11.000;2023-05-10T02:44:22;18.90;55.00
13093;DHT22;6612;49.568;11.000;2023-05-10T02:46:50;19.00;55.50
13093;DHT22;6612;49.568;11.000;2023-05-10T02:49:18;18.90;55.40
13093;DHT22;6612;49.568;11.000;2023-05-10T02:51:50;18.90;55.50
13093;DHT22;6612;49.568;11.000;2023-05-10T02:54:20;18.90;56.10
13093;DHT22;6612;49.568;11.000;2023-05-10T02:56:56;19.00;56.00
13093;DHT22;6612;49.568;11.000;2023-05-10T02:59:24;19.00;56.60
13093;DHT22;6612;49.568;11.000;2023-05-10T03:01:51;19.00;55.80
13093;DHT22;6612;49.568;11.000;2023-05-10T03:04:18;19.00;55.90
13093;DHT22;6612;49.568;11.000;2023-05-10T03:06:45;19.00;55.90
13093;DHT22;6612;49.568;11.000;2023-05-10T03:09:12;19.00;56.00
13093;DHT22;6612;49.568;11.000;2023-05-10T03:11:47;19.00;56.00
13093;DHT22;6612;49.568;11.000;2023-05-10T03:14:31;19.00;56.50
13093;DHT22;6612;49.568;11.000;2023-05-10T03:17:06;19.00;57.10
13093;DHT22;6612;49.568;11.000;2023-05-10T03:19:44;19.00;56.60
13093;DHT22;6612;49.568;11.000;2023-05-10T03:22:21;19.00;56.50
13093;DHT22;6612;49.568;11.000;2023-05-10T03:24:49;19.00;56.70
13093;DHT22;6612;49.568;11.000;2023-05-10T03:27:16;19.00;56.20
13093;DHT22;6612;49.568;11.000;2023-05-10T03:29:45;19.00;56.30
13093;DHT22;6612;49.568;11.000;2023-05-10T03:32:13;19.00;56.60
13093;DHT22;6612;49.568;11.000;2023-05-10T03:34:41;19.00;56.40
13093;DHT22;6612;49.568;11.000;2023-05-10T03:37:08;19.00;56.60
13093;DHT22;6612;49.568;11.000;2023-05-10T03:39:36;19.00;56.50
13093;DHT22;6612;49.568;11.000;2023-05-10T03:42:03;19.00;56.60
13093;DHT22;6612;49.568;11.000;2023-05-10T03:44:30;19.00;56.70
13093;DHT22;6612;49.568;11.000;2023-05-10T03:47:00;19.00;56.60
13093;DHT22;6612;49.568;11.000;2023-05-10T03:49:27;19.00;56.70
13093;DHT22;6612;49.568;11.000;2023-05-10T03:51:54;19.00;56.60
13093;DHT22;6612;49.568;11.000;2023-05-10T03:54:21;19.00;56.60
13093;DHT22;6612;49.568;11.000;2023-05-10T03:56:48;19.00;56.80
13093;DHT22;6612;49.568;11.000;2023-05-10T03:59:15;19.00;56.80
13093;DHT22;6612;49.568;11.000;2023-05-10T04:01:42;19.00;56.80
13093;DHT22;6612;49.568;11.000;2023-05-10T04:04:10;19.00;56.80
13093;DHT22;6612;49.568;11.000;2023-05-10T04:06:38;18.90;56.90
13093;DHT22;6612;49.568;11.000;2023-05-10T04:09:05;18.90;56.90
13093;DHT22;6612;49.568;11.000;2023-05-10T04:11:32;18.90;56.90
13093;DHT22;6612;49.568;11.000;2023-05-10T04:13:59;18.90;56.90
13093;DHT22;6612;49.568;11.000;2023-05-10T04:16:26;18.90;56.90
13093;DHT22;6612;49.568;11.000;2023-05-10T04:18:53;18.90;57.00
13093;DHT22;6612;49.568;11.000;2023-05-10T04:21:21;18.90;57.00
13093;DHT22;6612;49.568;11.000;2023-05-10T04:23:48;18.90;57.30
13093;DHT22;6612;49.568;11.000;2023-05-10T04:26:15;18.90;57.10
13093;DHT22;6612;49.568;11.000;2023-05-10T04:28:42;18.90;57.10
13093;DHT22;6612;49.568;11.000;2023-05-10T04:31:10;18.90;57.10
13093;DHT22;6612;49.568;11.000;2023-05-10T04:33:37;18.90;57.20
13093;DHT22;6612;49.568;11.000;2023-05-10T04:36:05;18.90;57.20
13093;DHT22;6612;49.568;11.000;2023-05-10T04:38:33;18.90;57.20
13093;DHT22;6612;49.568;11.000;2023-05-10T04:41:04;18.90;57.40
13093;DHT22;6612;49.568;11.000;2023-05-10T04:43:31;18.90;57.70
13093;DHT22;6612;49.568;11.000;2023-05-10T04:45:58;18.90;57.30
13093;DHT22;6612;49.568;11.000;2023-05-10T04:48:25;18.90;57.40
13093;DHT22;6612;49.568;11.000;2023-05-10T04:50:52;18.80;57.20
13093;DHT22;6612;49.568;11.000;2023-05-10T04:53:19;18.90;57.30
13093;DHT22;6612;49.568;11.000;2023-05-10T04:55:48;18.80;57.30
13093;DHT22;6612;49.568;11.000;2023-05-10T04:58:15;18.90;57.50
13093;DHT22;6612;49.568;11.000;2023-05-10T05:00:42;18.80;57.40
13093;DHT22;6612;49.568;11.000;2023-05-10T05:03:09;18.90;57.50
13093;DHT22;6612;49.568;11.000;2023-05-10T05:05:36;18.90;57.50
13093;DHT22;6612;49.568;11.000;2023-05-10T05:08:04;18.90;57.40
13093;DHT22;6612;49.568;11.000;2023-05-10T05:10:31;18.90;57.40
13093;DHT22;6612;49.568;11.000;2023-05-10T05:12:59;18.90;57.40
13093;DHT22;6612;49.568;11.000;2023-05-10T05:15:26;18.90;57.50
13093;DHT22;6612;49.568;11.000;2023-05-10T05:17:53;18.90;57.40
13093;DHT22;6612;49.568;11.000;2023-05-10T05:20:20;18.90;57.50
13093;DHT22;6612;49.568;11.000;2023-05-10T05:22:47;18.90;57.60
13093;DHT22;6612;49.568;11.000;2023-05-10T05:25:15;18.90;57.60
13093;DHT22;6612;49.568;11.000;2023-05-10T05:27:42;18.90;57.50
13093;DHT22;6612;49.568;11.000;2023-05-10T05:30:11;18.90;57.60
13093;DHT22;6612;49.568;11.000;2023-05-10T05:32:38;19.00;57.90
13093;DHT22;6612;49.568;11.000;2023-05-10T05:35:05;19.00;57.80
13093;DHT22;6612;49.568;11.000;2023-05-10T05:37:32;19.00;57.90
13093;DHT22;6612;49.568;11.000;2023-05-10T05:39:59;19.00;57.80
13093;DHT22;6612;49.568;11.000;2023-05-10T05:42:27;19.10;57.90
13093;DHT22;6612;49.568;11.000;2023-05-10T05:44:54;19.10;57.90
13093;DHT22;6612;49.568;11.000;2023-05-10T05:47:22;19.20;57.90
13093;DHT22;6612;49.568;11.000;2023-05-10T05:49:50;19.30;58.10
13093;DHT22;6612;49.568;11.000;2023-05-10T05:52:17;19.30;58.10
13093;DHT22;6612;49.568;11.000;2023-05-10T05:54:44;19.30;58.00
13093;DHT22;6612;49.568;11.000;2023-05-10T05:57:11;19.40;58.10
13093;DHT22;6612;49.568;11.000;2023-05-10T05:59:38;19.40;58.10
13093;DHT22;6612;49.568;11.000;2023-05-10T06:02:07;19.50;58.10
13093;DHT22;6612;49.568;11.000;2023-05-10T06:04:36;19.50;58.20
13093;DHT22;6612;49.568;11.000;2023-05-10T06:07:03;19.60;58.30
13093;DHT22;6612;49.568;11.000;2023-05-10T06:09:30;19.60;58.00
13093;DHT22;6612;49.568;11.000;2023-05-10T06:11:57;19.70;58.10
13093;DHT22;6612;49.568;11.000;2023-05-10T06:14:24;19.70;57.70
13093;DHT22;6612;49.568;11.000;2023-05-10T06:16:51;19.80;57.70
13093;DHT22;6612;49.568;11.000;2023-05-10T06:19:18;19.80;57.70
13093;DHT22;6612;49.568;11.000;2023-05-10T06:21:46;19.80;57.60
13093;DHT22;6612;49.568;11.000;2023-05-10T06:24:13;19.90;57.60
13093;DHT22;6612;49.568;11.000;2023-05-10T06:26:40;19.90;57.10
13093;DHT22;6612;49.568;11.000;2023-05-10T06:29:07;19.90;57.10
13093;DHT22;6612;49.568;11.000;2023-05-10T06:31:34;19.90;57.00
13093;DHT22;6612;49.568;11.000;2023-05-10T06:34:01;19.90;56.80
13093;DHT22;6612;49.568;11.000;2023-05-10T06:36:28;19.80;56.90
13093;DHT22;6612;49.568;11.000;2023-05-10T06:38:56;19.80;57.00
13093;DHT22;6612;49.568;11.000;2023-05-10T06:41:23;19.90;57.40
13093;DHT22;6612;49.568;11.000;2023-05-10T06:43:50;19.90;57.60
13093;DHT22;6612;49.568;11.000;2023-05-10T06:46:17;20.00;57.90
13093;DHT22;6612;49.568;11.000;2023-05-10T06:48:44;20.00;57.90
13093;DHT22;6612;49.568;11.000;2023-05-10T06:51:11;20.10;58.10
13093;DHT22;6612;49.568;11.000;2023-05-10T06:53:38;20.20;58.20
13093;DHT22;6612;49.568;11.000;2023-05-10T06:56:07;20.30;58.10
13093;DHT22;6612;49.568;11.000;2023-05-10T06:58:34;20.40;58.20
13093;DHT22;6612;49.568;11.000;2023-05-10T07:01:04;20.60;58.80
13093;DHT22;6612;49.568;11.000;2023-05-10T07:03:31;20.70;59.20
13093;DHT22;6612;49.568;11.000;2023-05-10T07:06:01;20.90;58.90
13093;DHT22;6612;49.568;11.000;2023-05-10T07:08:30;21.10;58.70
13093;DHT22;6612;49.568;11.000;2023-05-10T07:11:01;21.30;57.80
13093;DHT22;6612;49.568;11.000;2023-05-10T07:13:30;21.50;57.70
13093;DHT22;6612;49.568;11.000;2023-05-10T07:15:58;21.60;57.30
13093;DHT22;6612;49.568;11.000;2023-05-10T07:18:25;21.70;56.70
13093;DHT22;6612;49.568;11.000;2023-05-10T07:20:52;21.80;56.50
13093;DHT22;6612;49.568;11.000;2023-05-10T07:23:19;21.90;56.40
13093;DHT22;6612;49.568;11.000;2023-05-10T07:25:47;22.00;56.80
13093;DHT22;6612;49.568;11.000;2023-05-10T07:28:14;22.10;56.70
13093;DHT22;6612;49.568;11.000;2023-05-10T07:30:43;22.20;56.50
13093;DHT22;6612;49.568;11.000;2023-05-10T07:33:11;22.40;56.10
13093;DHT22;6612;49.568;11.000;2023-05-10T07:35:39;22.40;55.90
13093;DHT22;6612;49.568;11.000;2023-05-10T07:38:06;22.50;55.90
13093;DHT22;6612;49.568;11.000;2023-05-10T07:40:33;22.60;55.50
13093;DHT22;6612;49.568;11.000;2023-05-10T07:43:00;22.70;55.10
13093;DHT22;6612;49.568;11.000;2023-05-10T07:45:27;22.70;54.60
13093;DHT22;6612;49.568;11.000;2023-05-10T07:47:56;22.70;54.20
13093;DHT22;6612;49.568;11.000;2023-05-10T07:50:23;22.70;54.10
13093;DHT22;6612;49.568;11.000;2023-05-10T07:52:50;22.70;54.00
13093;DHT22;6612;49.568;11.000;2023-05-10T07:55:18;22.70;53.70
13093;DHT22;6612;49.568;11.000;2023-05-10T07:57:45;22.60;53.30
13093;DHT22;6612;49.568;11.000;2023-05-10T08:00:13;22.60;53.20
13093;DHT22;6612;49.568;11.000;2023-05-10T08:02:43;22.50;53.00
13093;DHT22;6612;49.568;11.000;2023-05-10T08:05:12;22.40;52.80
13093;DHT22;6612;49.568;11.000;2023-05-10T08:07:39;22.30;53.10
13093;DHT22;6612;49.568;11.000;2023-05-10T08:10:07;22.30;52.80
13093;DHT22;6612;49.568;11.000;2023-05-10T08:12:34;22.20;52.80
13093;DHT22;6612;49.568;11.000;2023-05-10T08:15:02;22.10;52.80
13093;DHT22;6612;49.568;11.000;2023-05-10T08:17:29;22.00;52.90
13093;DHT22;6612;49.568;11.000;2023-05-10T08:19:56;21.90;52.70
13093;DHT22;6612;49.568;11.000;2023-05-10T08:22:24;21.80;52.70
13093;DHT22;6612;49.568;11.000;2023-05-10T08:24:52;21.80;53.00
13093;DHT22;6612;49.568;11.000;2023-05-10T08:27:19;21.80;53.60
13093;DHT22;6612;49.568;11.000;2023-05-10T08:29:46;21.80;54.30
13093;DHT22;6612;49.568;11.000;2023-05-10T08:32:13;21.90;54.60
13093;DHT22;6612;49.568;11.000;2023-05-10T08:34:40;22.00;54.90
13093;DHT22;6612;49.568;11.000;2023-05-10T08:37:07;22.10;54.90
13093;DHT22;6612;49.568;11.000;2023-05-10T08:39:36;22.20;54.70
13093;DHT22;6612;49.568;11.000;2023-05-10T08:42:04;22.40;54.40
13093;DHT22;6612;49.568;11.000;2023-05-10T08:44:32;22.40;54.10
13093;DHT22;6612;49.568;11.000;2023-05-10T08:47:04;22.50;53.60
13093;DHT22;6612;49.568;11.000;2023-05-10T08:49:32;22.50;53.40
13093;DHT22;6612;49.568;11.000;2023-05-10T08:52:02;22.60;53.50
13093;DHT22;6612;49.568;11.000;2023-05-10T08:54:30;22.60;53.50
13093;DHT22;6612;49.568;11.000;2023-05-10T08:56:59;22.60;53.30
13093;DHT22;6612;49.568;11.000;2023-05-10T08:59:27;22.60;53.40
13093;DHT22;6612;49.568;11.000;2023-05-10T09:01:57;22.60;52.60
13093;DHT22;6612;49.568;11.000;2023-05-10T09:04:24;22.60;52.20
13093;DHT22;6612;49.568;11.000;2023-05-10T09:06:51;22.50;52.10
13093;DHT22;6612;49.568;11.000;2023-05-10T09:09:19;22.40;52.30
13093;DHT22;6612;49.568;11.000;2023-05-10T09:11:47;22.40;52.40
13093;DHT22;6612;49.568;11.000;2023-05-10T09:14:16;22.40;52.90
13093;DHT22;6612;49.568;11.000;2023-05-10T09:16:44;22.40;53.70
13093;DHT22;6612;49.568;11.000;2023-05-10T09:19:11;22.50;54.20
13093;DHT22;6612;49.568;11.000;2023-05-10T09:21:38;22.60;54.50
13093;DHT22;6612;49.568;11.000;2023-05-10T09:24:06;22.70;55.00
13093;DHT22;6612;49.568;11.000;2023-05-10T09:26:33;22.90;55.00
13093;DHT22;6612;49.568;11.000;2023-05-10T09:29:01;23.10;54.20
13093;DHT22;6612;49.568;11.000;2023-05-10T09:31:47;23.30;54.30
13093;DHT22;6612;49.568;11.000;2023-05-10T09:34:17;23.50;53.80
13093;DHT22;6612;49.568;11.000;2023-05-10T09:36:55;23.60;53.50
13093;DHT22;6612;49.568;11.000;2023-05-10T09:39:30;23.80;52.40
13093;DHT22;6612;49.568;11.000;2023-05-10T09:41:58;23.90;52.80
13093;DHT22;6612;49.568;11.000;2023-05-10T09:44:26;24.00;52.50
13093;DHT22;6612;49.568;11.000;2023-05-10T09:46:55;24.20;52.30
13093;DHT22;6612;49.568;11.000;2023-05-10T09:49:22;24.30;52.50
13093;DHT22;6612;49.568;11.000;2023-05-10T09:52:00;24.50;52.50
13093;DHT22;6612;49.568;11.000;2023-05-10T09:54:28;24.60;50.40
13093;DHT22;6612;49.568;11.000;2023-05-10T09:56:55;24.70;51.00
13093;DHT22;6612;49.568;11.000;2023-05-10T09:59:25;24.90;50.70
13093;DHT22;6612;49.568;11.000;2023-05-10T10:01:53;25.00;50.10
13093;DHT22;6612;49.568;11.000;2023-05-10T10:04:22;25.00;50.00
13093;DHT22;6612;49.568;11.000;2023-05-10T10:06:59;25.10;49.70
13093;DHT22;6612;49.568;11.000;2023-05-10T10:09:27;25.20;49.50
13093;DHT22;6612;49.568;11.000;2023-05-10T10:11:54;25.30;50.10
13093;DHT22;6612;49.568;11.000;2023-05-10T10:14:22;25.40;49.30
13093;DHT22;6612;49.568;11.000;2023-05-10T10:16:50;25.40;49.50
13093;DHT22;6612;49.568;11.000;2023-05-10T10:19:19;25.50;49.10
13093;DHT22;6612;49.568;11.000;2023-05-10T10:21:47;25.50;48.80
13093;DHT22;6612;49.568;11.000;2023-05-10T10:24:14;25.60;48.40
13093;DHT22;6612;49.568;11.000;2023-05-10T10:26:42;25.60;47.80
13093;DHT22;6612;49.568;11.000;2023-05-10T10:29:17;25.70;47.70
13093;DHT22;6612;49.568;11.000;2023-05-10T10:31:51;25.70;47.40
13093;DHT22;6612;49.568;11.000;2023-05-10T10:34:26;25.80;47.10
13093;DHT22;6612;49.568;11.000;2023-05-10T10:36:55;25.80;46.80
13093;DHT22;6612;49.568;11.000;2023-05-10T10:39:23;25.90;47.40
13093;DHT22;6612;49.568;11.000;2023-05-10T10:41:52;26.00;47.40
13093;DHT22;6612;49.568;11.000;2023-05-10T10:44:33;26.10;47.00
13093;DHT22;6612;49.568;11.000;2023-05-10T10:47:05;26.10;45.20
13093;DHT22;6612;49.568;11.000;2023-05-10T10:49:44;26.10;45.20
13093;DHT22;6612;49.568;11.000;2023-05-10T10:52:25;26.00;43.90
13093;DHT22;6612;49.568;11.000;2023-05-10T10:54:59;26.00;43.90
13093;DHT22;6612;49.568;11.000;2023-05-10T10:57:27;25.80;43.90
13093;DHT22;6612;49.568;11.000;2023-05-10T11:00:20;25.70;44.30
13093;DHT22;6612;49.568;11.000;2023-05-10T11:02:49;25.50;43.40
13093;DHT22;6612;49.568;11.000;2023-05-10T11:05:45;25.40;44.10
13093;DHT22;6612;49.568;11.000;2023-05-10T11:08:17;25.20;44.00
13093;DHT22;6612;49.568;11.000;2023-05-10T11:11:02;25.10;44.40
13093;DHT22;6612;49.568;11.000;2023-05-10T11:13:31;24.90;44.60
13093;DHT22;6612;49.568;11.000;2023-05-10T11:16:09;24.80;44.90
13093;DHT22;6612;49.568;11.000;2023-05-10T11:18:37;24.70;45.10
13093;DHT22;6612;49.568;11.000;2023-05-10T11:21:08;24.60;45.00
13093;DHT22;6612;49.568;11.000;2023-05-10T11:23:49;24.60;45.50
13093;DHT22;6612;49.568;11.000;2023-05-10T11:26:16;24.50;45.30
13093;DHT22;6612;49.568;11.000;2023-05-10T11:28:43;24.40;45.40
13093;DHT22;6612;49.568;11.000;2023-05-10T11:31:12;24.40;45.60
13093;DHT22;6612;49.568;11.000;2023-05-10T11:33:43;24.30;45.70
13093;DHT22;6612;49.568;11.000;2023-05-10T11:36:13;24.30;46.10
13093;DHT22;6612;49.568;11.000;2023-05-10T11:38:41;24.30;46.10
13093;DHT22;6612;49.568;11.000;2023-05-10T11:41:08;24.30;46.20
13093;DHT22;6612;49.568;11.000;2023-05-10T11:43:37;24.30;46.30
13093;DHT22;6612;49.568;11.000;2023-05-10T11:46:05;24.40;45.80
13093;DHT22;6612;49.568;11.000;2023-05-10T11:48:33;24.30;45.40
13093;DHT22;6612;49.568;11.000;2023-05-10T11:51:01;24.30;45.50
13093;DHT22;6612;49.568;11.000;2023-05-10T11:53:31;24.30;45.50
13093;DHT22;6612;49.568;11.000;2023-05-10T11:56:03;24.40;45.50
13093;DHT22;6612;49.568;11.000;2023-05-10T11:58:31;24.30;45.20
13093;DHT22;6612;49.568;11.000;2023-05-10T12:00:58;24.30;46.50
13093;DHT22;6612;49.568;11.000;2023-05-10T12:03:25;24.30;45.90
13093;DHT22;6612;49.568;11.000;2023-05-10T12:05:53;24.40;46.00
13093;DHT22;6612;49.568;11.000;2023-05-10T12:08:22;24.50;45.90
13093;DHT22;6612;49.568;11.000;2023-05-10T12:10:50;24.50;45.90
13093;DHT22;6612;49.568;11.000;2023-05-10T12:13:19;24.70;46.30
13093;DHT22;6612;49.568;11.000;2023-05-10T12:15:47;24.70;45.80
13093;DHT22;6612;49.568;11.000;2023-05-10T12:18:14;24.90;46.10
13093;DHT22;6612;49.568;11.000;2023-05-10T12:20:41;25.00;45.90
13093;DHT22;6612;49.568;11.000;2023-05-10T12:23:09;25.00;45.70
13093;DHT22;6612;49.568;11.000;2023-05-10T12:25:37;25.10;45.40
13093;DHT22;6612;49.568;11.000;2023-05-10T12:28:07;25.20;45.30
13093;DHT22;6612;49.568;11.000;2023-05-10T12:30:35;25.30;45.30
13093;DHT22;6612;49.568;11.000;2023-05-10T12:33:07;25.30;45.10
13093;DHT22;6612;49.568;11.000;2023-05-10T12:35:43;25.40;45.20
13093;DHT22;6612;49.568;11.000;2023-05-10T12:38:28;25.40;44.70
13093;DHT22;6612;49.568;11.000;2023-05-10T12:40:57;25.40;44.60
13093;DHT22;6612;49.568;11.000;2023-05-10T12:43:25;25.50;44.90
13093;DHT22;6612;49.568;11.000;2023-05-10T12:45:53;25.50;44.40
13093;DHT22;6612;49.568;11.000;2023-05-10T12:48:20;25.50;44.40
13093;DHT22;6612;49.568;11.000;2023-05-10T12:50:47;25.40;44.30
13093;DHT22;6612;49.568;11.000;2023-05-10T12:53:15;25.40;44.00
13093;DHT22;6612;49.568;11.000;2023-05-10T12:55:42;25.30;44.10
13093;DHT22;6612;49.568;11.000;2023-05-10T12:58:09;25.20;44.00
13093;DHT22;6612;49.568;11.000;2023-05-10T13:00:38;25.10;43.90
13093;DHT22;6612;49.568;11.000;2023-05-10T13:03:05;25.00;44.10
13093;DHT22;6612;49.568;11.000;2023-05-10T13:05:32;25.00;44.50
13093;DHT22;6612;49.568;11.000;2023-05-10T13:07:59;24.90;44.70
13093;DHT22;6612;49.568;11.000;2023-05-10T13:10:27;24.80;44.70
13093;DHT22;6612;49.568;11.000;2023-05-10T13:12:54;24.70;44.80
13093;DHT22;6612;49.568;11.000;2023-05-10T13:15:22;24.70;44.80
13093;DHT22;6612;49.568;11.000;2023-05-10T13:17:50;24.60;44.90
13093;DHT22;6612;49.568;11.000;2023-05-10T13:20:17;24.60;45.00
13093;DHT22;6612;49.568;11.000;2023-05-10T13:22:44;24.60;45.00
13093;DHT22;6612;49.568;11.000;2023-05-10T13:25:12;24.50;44.90
13093;DHT22;6612;49.568;11.000;2023-05-10T13:27:39;24.50;44.80
13093;DHT22;6612;49.568;11.000;2023-05-10T13:30:08;24.50;44.80
13093;DHT22;6612;49.568;11.000;2023-05-10T13:32:37;24.50;45.00
13093;DHT22;6612;49.568;11.000;2023-05-10T13:35:06;24.40;45.20
13093;DHT22;6612;49.568;11.000;2023-05-10T13:37:33;24.40;45.50
13093;DHT22;6612;49.568;11.000;2023-05-10T13:40:03;24.30;45.30
13093;DHT22;6612;49.568;11.000;2023-05-10T13:42:30;24.30;45.30
13093;DHT22;6612;49.568;11.000;2023-05-10T13:44:59;24.30;45.20
13093;DHT22;6612;49.568;11.000;2023-05-10T13:47:26;24.20;45.30
13093;DHT22;6612;49.568;11.000;2023-05-10T13:49:53;24.20;45.50
13093;DHT22;6612;49.568;11.000;2023-05-10T13:52:22;24.10;45.40
13093;DHT22;6612;49.568;11.000;2023-05-10T13:54:49;24.00;45.60
13093;DHT22;6612;49.568;11.000;2023-05-10T13:57:17;24.00;46.30
13093;DHT22;6612;49.568;11.000;2023-05-10T13:59:44;23.90;46.80
13093;DHT22;6612;49.568;11.000;2023-05-10T14:02:11;23.80;47.10
13093;DHT22;6612;49.568;11.000;2023-05-10T14:04:38;23.70;47.10
13093;DHT22;6612;49.568;11.000;2023-05-10T14:07:05;23.60;47.60
13093;DHT22;6612;49.568;11.000;2023-05-10T14:09:34;23.50;47.80
13093;DHT22;6612;49.568;11.000;2023-05-10T14:12:01;23.40;48.00
13093;DHT22;6612;49.568;11.000;2023-05-10T14:14:28;23.40;48.10
13093;DHT22;6612;49.568;11.000;2023-05-10T14:16:55;23.30;48.30
13093;DHT22;6612;49.568;11.000;2023-05-10T14:19:22;23.20;48.70
13093;DHT22;6612;49.568;11.000;2023-05-10T14:21:49;23.20;49.00
13093;DHT22;6612;49.568;11.000;2023-05-10T14:24:17;23.10;49.00
13093;DHT22;6612;49.568;11.000;2023-05-10T14:26:45;23.00;49.00
13093;DHT22;6612;49.568;11.000;2023-05-10T14:29:12;23.00;49.60
13093;DHT22;6612;49.568;11.000;2023-05-10T14:31:40;22.90;49.30
13093;DHT22;6612;49.568;11.000;2023-05-10T14:34:07;22.90;49.10
13093;DHT22;6612;49.568;11.000;2023-05-10T14:36:34;22.90;49.00
13093;DHT22;6612;49.568;11.000;2023-05-10T14:39:01;22.80;49.30
13093;DHT22;6612;49.568;11.000;2023-05-10T14:41:28;22.80;49.40
13093;DHT22;6612;49.568;11.000;2023-05-10T14:43:57;22.80;49.40
13093;DHT22;6612;49.568;11.000;2023-05-10T14:46:24;22.70;49.30
13093;DHT22;6612;49.568;11.000;2023-05-10T14:48:51;22.70;49.10
13093;DHT22;6612;49.568;11.000;2023-05-10T14:51:18;22.70;49.30
13093;DHT22;6612;49.568;11.000;2023-05-10T14:53:47;22.70;49.50
13093;DHT22;6612;49.568;11.000;2023-05-10T14:56:14;22.70;49.70
13093;DHT22;6612;49.568;11.000;2023-05-10T14:58:41;22.70;49.40
13093;DHT22;6612;49.568;11.000;2023-05-10T15:01:10;22.70;49.30
13093;DHT22;6612;49.568;11.000;2023-05-10T15:03:37;22.70;49.00
13093;DHT22;6612;49.568;11.000;2023-05-10T15:06:05;22.70;49.00
13093;DHT22;6612;49.568;11.000;2023-05-10T15:08:32;22.70;48.70
13093;DHT22;6612;49.568;11.000;2023-05-10T15:10:59;22.70;48.70
13093;DHT22;6612;49.568;11.000;2023-05-10T15:13:26;22.70;48.20
13093;DHT22;6612;49.568;11.000;2023-05-10T15:15:53;22.70;48.10
13093;DHT22;6612;49.568;11.000;2023-05-10T15:18:21;22.60;48.00
13093;DHT22;6612;49.568;11.000;2023-05-10T15:20:48;22.60;48.10
13093;DHT22;6612;49.568;11.000;2023-05-10T15:23:15;22.50;48.10
13093;DHT22;6612;49.568;11.000;2023-05-10T15:25:42;22.50;48.00
13093;DHT22;6612;49.568;11.000;2023-05-10T15:28:09;22.40;47.90
13093;DHT22;6612;49.568;11.000;2023-05-10T15:30:36;22.40;47.90
13093;DHT22;6612;49.568;11.000;2023-05-10T15:33:03;22.30;47.80
13093;DHT22;6612;49.568;11.000;2023-05-10T15:35:32;22.20;47.80
13093;DHT22;6612;49.568;11.000;2023-05-10T15:38:01;22.10;48.00
13093;DHT22;6612;49.568;11.000;2023-05-10T15:40:28;22.00;48.10